sensor_id;sensor_type;location;lat;lon;timestamp;P1;durP1;ratioP1;P2;durP2;ratioP2
59336;SDS011;45115;52.002;4.686;2023-05-14T00:02:03;27.65;;;17.10;;
59336;SDS011;45115;52.002;4.686;2023-05-14T00:04:29;31.05;;;18.02;;
59336;SDS011;45115;52.002;4.686;2023-05-14T00:06:56;27.58;;;17.42;;
59336;SDS011;45115;52.002;4.686;2023-05-14T00:09:23;29.35;;;16.63;;
59336;SDS011;45115;52.002;4.686;2023-05-14T00:11:51;28.45;;;17.55;;
59336;SDS011;45115;52.002;4.686;2023-05-14T00:14:17;29.90;;;16.63;;
59336;SDS011;45115;52.002;4.686;2023-05-14T00:16:44;30.52;;;16.80;;
59336;SDS011;45115;52.002;4.686;2023-05-14T00:19:10;30.55;;;16.35;;
59336;SDS011;45115;52.002;4.686;2023-05-14T00:21:37;27.80;;;16.05;;
59336;SDS011;45115;52.002;4.686;2023-05-14T00:24:04;28.50;;;16.52;;
59336;SDS011;45115;52.002;4.686;2023-05-14T00:26:31;28.45;;;16.50;;
59336;SDS011;45115;52.002;4.686;2023-05-14T00:28:59;31.23;;;17.50;;
59336;SDS011;45115;52.002;4.686;2023-05-14T00:31:25;27.85;;;15.38;;
59336;SDS011;45115;52.002;4.686;2023-05-14T00:33:52;31.02;;;17.02;;
59336;SDS011;45115;52.002;4.686;2023-05-14T00:36:18;27.05;;;16.20;;
59336;SDS011;45115;52.002;4.686;2023-05-14T00:38:45;29.02;;;17.75;;
59336;SDS011;45115;52.002;4.686;2023-05-14T00:41:12;29.08;;;17.55;;
59336;SDS011;45115;52.002;4.686;2023-05-14T00:43:39;30.33;;;17.45;;
59336;SDS011;45115;52.002;4.686;2023-05-14T00:46:07;29.48;;;16.38;;
59336;SDS011;45115;52.002;4.686;2023-05-14T00:48:36;27.48;;;16.10;;
59336;SDS011;45115;52.002;4.686;2023-05-14T00:51:03;27.73;;;14.55;;
59336;SDS011;45115;52.002;4.686;2023-05-14T00:53:30;29.88;;;16.30;;
59336;SDS011;45115;52.002;4.686;2023-05-14T00:55:57;27.42;;;15.88;;
59336;SDS011;45115;52.002;4.686;2023-05-14T00:58:24;29.55;;;15.73;;
59336;SDS011;45115;52.002;4.686;2023-05-14T01:00:50;29.98;;;15.85;;
59336;SDS011;45115;52.002;4.686;2023-05-14T01:03:18;28.30;;;16.58;;
59336;SDS011;45115;52.002;4.686;2023-05-14T01:05:52;33.00;;;17.40;;
59336;SDS011;45115;52.002;4.686;2023-05-14T01:08:26;29.52;;;16.42;;
59336;SDS011;45115;52.002;4.686;2023-05-14T01:11:02;31.52;;;18.23;;
59336;SDS011;45115;52.002;4.686;2023-05-14T01:13:32;29.42;;;16.63;;
59336;SDS011;45115;52.002;4.686;2023-05-14T01:16:08;29.00;;;17.17;;
59336;SDS011;45115;52.002;4.686;2023-05-14T01:18:40;30.23;;;17.47;;
59336;SDS011;45115;52.002;4.686;2023-05-14T01:21:32;35.17;;;17.67;;
59336;SDS011;45115;52.002;4.686;2023-05-14T01:24:01;28.95;;;15.93;;
59336;SDS011;45115;52.002;4.686;2023-05-14T01:26:27;28.77;;;16.08;;
59336;SDS011;45115;52.002;4.686;2023-05-14T01:28:56;29.08;;;15.65;;
59336;SDS011;45115;52.002;4.686;2023-05-14T01:31:26;29.70;;;15.70;;
59336;SDS011;45115;52.002;4.686;2023-05-14T01:33:56;27.65;;;15.98;;
59336;SDS011;45115;52.002;4.686;2023-05-14T01:36:26;28.42;;;15.02;;
59336;SDS011;45115;52.002;4.686;2023-05-14T01:38:55;31.92;;;16.77;;
59336;SDS011;45115;52.002;4.686;2023-05-14T01:41:22;27.52;;;15.05;;
59336;SDS011;45115;52.002;4.686;2023-05-14T01:43:50;32.70;;;17.25;;
59336;SDS011;45115;52.002;4.686;2023-05-14T01:46:17;27.85;;;16.30;;
59336;SDS011;45115;52.002;4.686;2023-05-14T01:48:44;28.63;;;16.33;;
59336;SDS011;45115;52.002;4.686;2023-05-14T01:51:11;29.58;;;16.92;;
59336;SDS011;45115;52.002;4.686;2023-05-14T01:53:41;31.23;;;16.60;;
59336;SDS011;45115;52.002;4.686;2023-05-14T01:56:08;32.90;;;17.55;;
59336;SDS011;45115;52.002;4.686;2023-05-14T01:58:34;31.88;;;16.67;;
59336;SDS011;45115;52.002;4.686;2023-05-14T02:01:01;28.42;;;15.98;;
59336;SDS011;45115;52.002;4.686;2023-05-14T02:03:28;30.30;;;16.95;;
59336;SDS011;45115;52.002;4.686;2023-05-14T02:05:55;30.00;;;15.98;;
59336;SDS011;45115;52.002;4.686;2023-05-14T02:08:21;32.20;;;16.98;;
59336;SDS011;45115;52.002;4.686;2023-05-14T02:10:49;31.48;;;16.70;;
59336;SDS011;45115;52.002;4.686;2023-05-14T02:13:16;28.23;;;16.17;;
59336;SDS011;45115;52.002;4.686;2023-05-14T02:15:43;33.13;;;17.45;;
59336;SDS011;45115;52.002;4.686;2023-05-14T02:18:09;29.73;;;16.98;;
59336;SDS011;45115;52.002;4.686;2023-05-14T02:20:36;30.80;;;17.13;;
59336;SDS011;45115;52.002;4.686;2023-05-14T02:23:04;30.25;;;16.92;;
59336;SDS011;45115;52.002;4.686;2023-05-14T02:25:31;35.33;;;19.27;;
59336;SDS011;45115;52.002;4.686;2023-05-14T02:27:59;31.90;;;17.10;;
59336;SDS011;45115;52.002;4.686;2023-05-14T02:30:25;31.40;;;17.73;;
59336;SDS011;45115;52.002;4.686;2023-05-14T02:32:54;34.58;;;17.75;;
59336;SDS011;45115;52.002;4.686;2023-05-14T02:35:20;33.47;;;17.83;;
59336;SDS011;45115;52.002;4.686;2023-05-14T02:37:47;33.00;;;17.48;;
59336;SDS011;45115;52.002;4.686;2023-05-14T02:40:13;35.50;;;19.15;;
59336;SDS011;45115;52.002;4.686;2023-05-14T02:42:40;34.97;;;18.48;;
59336;SDS011;45115;52.002;4.686;2023-05-14T02:45:09;31.00;;;17.38;;
59336;SDS011;45115;52.002;4.686;2023-05-14T02:47:36;29.80;;;17.48;;
59336;SDS011;45115;52.002;4.686;2023-05-14T02:50:03;35.53;;;18.33;;
59336;SDS011;45115;52.002;4.686;2023-05-14T02:52:30;31.90;;;17.20;;
59336;SDS011;45115;52.002;4.686;2023-05-14T02:54:57;35.75;;;18.90;;
59336;SDS011;45115;52.002;4.686;2023-05-14T02:57:24;35.80;;;19.25;;
59336;SDS011;45115;52.002;4.686;2023-05-14T02:59:50;34.45;;;18.92;;
59336;SDS011;45115;52.002;4.686;2023-05-14T03:02:18;35.88;;;18.15;;
59336;SDS011;45115;52.002;4.686;2023-05-14T03:04:45;37.13;;;19.15;;
59336;SDS011;45115;52.002;4.686;2023-05-14T03:07:12;35.70;;;18.77;;
59336;SDS011;45115;52.002;4.686;2023-05-14T03:09:39;33.78;;;17.60;;
59336;SDS011;45115;52.002;4.686;2023-05-14T03:12:06;33.55;;;18.55;;
59336;SDS011;45115;52.002;4.686;2023-05-14T03:14:33;34.03;;;18.88;;
59336;SDS011;45115;52.002;4.686;2023-05-14T03:16:59;34.33;;;18.67;;
59336;SDS011;45115;52.002;4.686;2023-05-14T03:19:27;36.72;;;19.95;;
59336;SDS011;45115;52.002;4.686;2023-05-14T03:21:54;34.92;;;18.55;;
59336;SDS011;45115;52.002;4.686;2023-05-14T03:24:21;37.05;;;20.50;;
59336;SDS011;45115;52.002;4.686;2023-05-14T03:26:48;38.25;;;20.50;;
59336;SDS011;45115;52.002;4.686;2023-05-14T03:29:14;41.15;;;20.90;;
59336;SDS011;45115;52.002;4.686;2023-05-14T03:31:42;36.08;;;19.45;;
59336;SDS011;45115;52.002;4.686;2023-05-14T03:34:08;38.90;;;19.02;;
59336;SDS011;45115;52.002;4.686;2023-05-14T03:36:37;39.38;;;19.65;;
59336;SDS011;45115;52.002;4.686;2023-05-14T03:39:04;35.60;;;18.63;;
59336;SDS011;45115;52.002;4.686;2023-05-14T03:41:31;39.13;;;19.63;;
59336;SDS011;45115;52.002;4.686;2023-05-14T03:43:57;40.00;;;19.45;;
59336;SDS011;45115;52.002;4.686;2023-05-14T03:46:24;39.42;;;20.67;;
59336;SDS011;45115;52.002;4.686;2023-05-14T03:48:51;41.33;;;20.27;;
59336;SDS011;45115;52.002;4.686;2023-05-14T03:51:17;41.83;;;19.77;;
59336;SDS011;45115;52.002;4.686;2023-05-14T03:53:45;38.83;;;20.20;;
59336;SDS011;45115;52.002;4.686;2023-05-14T03:56:12;37.90;;;20.65;;
59336;SDS011;45115;52.002;4.686;2023-05-14T03:58:39;36.22;;;20.38;;
59336;SDS011;45115;52.002;4.686;2023-05-14T04:01:06;39.58;;;21.00;;
59336;SDS011;45115;52.002;4.686;2023-05-14T04:03:33;39.65;;;20.65;;
59336;SDS011;45115;52.002;4.686;2023-05-14T04:06:00;42.05;;;20.40;;
59336;SDS011;45115;52.002;4.686;2023-05-14T04:08:27;37.03;;;19.38;;
59336;SDS011;45115;52.002;4.686;2023-05-14T04:10:56;38.97;;;19.88;;
59336;SDS011;45115;52.002;4.686;2023-05-14T04:13:23;39.10;;;19.60;;
59336;SDS011;45115;52.002;4.686;2023-05-14T04:15:49;38.67;;;19.73;;
59336;SDS011;45115;52.002;4.686;2023-05-14T04:18:16;36.88;;;19.08;;
59336;SDS011;45115;52.002;4.686;2023-05-14T04:20:43;35.38;;;18.08;;
59336;SDS011;45115;52.002;4.686;2023-05-14T04:23:11;31.92;;;17.58;;
59336;SDS011;45115;52.002;4.686;2023-05-14T04:25:37;41.90;;;18.80;;
59336;SDS011;45115;52.002;4.686;2023-05-14T04:28:05;35.28;;;17.98;;
59336;SDS011;45115;52.002;4.686;2023-05-14T04:30:32;31.20;;;16.95;;
59336;SDS011;45115;52.002;4.686;2023-05-14T04:32:58;37.28;;;18.02;;
59336;SDS011;45115;52.002;4.686;2023-05-14T04:35:25;36.17;;;18.92;;
59336;SDS011;45115;52.002;4.686;2023-05-14T04:37:52;35.33;;;18.48;;
59336;SDS011;45115;52.002;4.686;2023-05-14T04:40:18;35.78;;;17.77;;
59336;SDS011;45115;52.002;4.686;2023-05-14T04:42:46;32.05;;;16.92;;
59336;SDS011;45115;52.002;4.686;2023-05-14T04:45:14;33.63;;;17.15;;
59336;SDS011;45115;52.002;4.686;2023-05-14T04:47:41;31.50;;;16.08;;
59336;SDS011;45115;52.002;4.686;2023-05-14T04:50:09;31.60;;;16.85;;
59336;SDS011;45115;52.002;4.686;2023-05-14T04:52:36;32.75;;;17.02;;
59336;SDS011;45115;52.002;4.686;2023-05-14T04:55:03;27.20;;;15.60;;
59336;SDS011;45115;52.002;4.686;2023-05-14T04:57:30;30.10;;;15.80;;
59336;SDS011;45115;52.002;4.686;2023-05-14T04:59:57;30.30;;;16.45;;
59336;SDS011;45115;52.002;4.686;2023-05-14T05:02:25;34.35;;;17.10;;
59336;SDS011;45115;52.002;4.686;2023-05-14T05:04:52;29.23;;;15.93;;
59336;SDS011;45115;52.002;4.686;2023-05-14T05:07:18;29.05;;;14.57;;
59336;SDS011;45115;52.002;4.686;2023-05-14T05:09:45;28.65;;;15.13;;
59336;SDS011;45115;52.002;4.686;2023-05-14T05:12:12;27.08;;;14.98;;
59336;SDS011;45115;52.002;4.686;2023-05-14T05:14:38;29.90;;;15.60;;
59336;SDS011;45115;52.002;4.686;2023-05-14T05:17:05;27.23;;;15.18;;
59336;SDS011;45115;52.002;4.686;2023-05-14T05:19:33;30.00;;;15.95;;
59336;SDS011;45115;52.002;4.686;2023-05-14T05:22:00;25.73;;;15.10;;
59336;SDS011;45115;52.002;4.686;2023-05-14T05:24:27;26.88;;;15.25;;
59336;SDS011;45115;52.002;4.686;2023-05-14T05:26:53;31.63;;;16.13;;
59336;SDS011;45115;52.002;4.686;2023-05-14T05:29:20;29.85;;;15.95;;
59336;SDS011;45115;52.002;4.686;2023-05-14T05:31:47;30.55;;;15.40;;
59336;SDS011;45115;52.002;4.686;2023-05-14T05:34:14;31.45;;;17.20;;
59336;SDS011;45115;52.002;4.686;2023-05-14T05:36:42;29.75;;;16.15;;
59336;SDS011;45115;52.002;4.686;2023-05-14T05:39:09;29.60;;;16.65;;
59336;SDS011;45115;52.002;4.686;2023-05-14T05:41:36;30.95;;;17.00;;
59336;SDS011;45115;52.002;4.686;2023-05-14T05:44:03;27.00;;;16.20;;
59336;SDS011;45115;52.002;4.686;2023-05-14T05:46:30;26.70;;;15.05;;
59336;SDS011;45115;52.002;4.686;2023-05-14T05:48:56;26.95;;;14.80;;
59336;SDS011;45115;52.002;4.686;2023-05-14T05:51:23;29.02;;;14.55;;
59336;SDS011;45115;52.002;4.686;2023-05-14T05:53:51;28.67;;;14.85;;
59336;SDS011;45115;52.002;4.686;2023-05-14T05:56:18;27.38;;;15.80;;
59336;SDS011;45115;52.002;4.686;2023-05-14T05:58:45;30.55;;;17.30;;
59336;SDS011;45115;52.002;4.686;2023-05-14T06:01:12;30.63;;;17.30;;
59336;SDS011;45115;52.002;4.686;2023-05-14T06:03:38;31.48;;;16.98;;
59336;SDS011;45115;52.002;4.686;2023-05-14T06:06:05;31.48;;;17.30;;
59336;SDS011;45115;52.002;4.686;2023-05-14T06:08:32;33.20;;;18.17;;
59336;SDS011;45115;52.002;4.686;2023-05-14T06:11:00;34.65;;;18.08;;
59336;SDS011;45115;52.002;4.686;2023-05-14T06:13:26;36.80;;;18.77;;
59336;SDS011;45115;52.002;4.686;2023-05-14T06:15:53;34.55;;;19.08;;
59336;SDS011;45115;52.002;4.686;2023-05-14T06:18:20;38.78;;;18.83;;
59336;SDS011;45115;52.002;4.686;2023-05-14T06:20:46;39.83;;;19.88;;
59336;SDS011;45115;52.002;4.686;2023-05-14T06:23:13;39.08;;;20.75;;
59336;SDS011;45115;52.002;4.686;2023-05-14T06:25:39;38.65;;;18.63;;
59336;SDS011;45115;52.002;4.686;2023-05-14T06:28:07;38.88;;;20.27;;
59336;SDS011;45115;52.002;4.686;2023-05-14T06:30:34;40.15;;;21.02;;
59336;SDS011;45115;52.002;4.686;2023-05-14T06:33:01;34.67;;;19.02;;
59336;SDS011;45115;52.002;4.686;2023-05-14T06:35:27;38.67;;;18.30;;
59336;SDS011;45115;52.002;4.686;2023-05-14T06:37:54;37.75;;;19.70;;
59336;SDS011;45115;52.002;4.686;2023-05-14T06:40:20;36.67;;;18.45;;
59336;SDS011;45115;52.002;4.686;2023-05-14T06:42:47;34.97;;;18.80;;
59336;SDS011;45115;52.002;4.686;2023-05-14T06:45:15;34.67;;;16.77;;
59336;SDS011;45115;52.002;4.686;2023-05-14T06:47:42;33.88;;;17.70;;
59336;SDS011;45115;52.002;4.686;2023-05-14T06:50:09;37.20;;;18.75;;
59336;SDS011;45115;52.002;4.686;2023-05-14T06:52:36;33.40;;;17.95;;
59336;SDS011;45115;52.002;4.686;2023-05-14T06:55:03;37.10;;;19.95;;
59336;SDS011;45115;52.002;4.686;2023-05-14T06:57:30;33.78;;;18.17;;
59336;SDS011;45115;52.002;4.686;2023-05-14T06:59:58;33.17;;;18.17;;
59336;SDS011;45115;52.002;4.686;2023-05-14T07:02:26;36.35;;;18.63;;
59336;SDS011;45115;52.002;4.686;2023-05-14T07:04:52;37.00;;;20.08;;
59336;SDS011;45115;52.002;4.686;2023-05-14T07:07:20;36.88;;;18.50;;
59336;SDS011;45115;52.002;4.686;2023-05-14T07:09:47;32.70;;;19.92;;
59336;SDS011;45115;52.002;4.686;2023-05-14T07:12:15;35.50;;;19.15;;
59336;SDS011;45115;52.002;4.686;2023-05-14T07:14:42;34.00;;;18.13;;
59336;SDS011;45115;52.002;4.686;2023-05-14T07:17:20;37.72;;;19.38;;
59336;SDS011;45115;52.002;4.686;2023-05-14T07:19:52;31.77;;;18.60;;
59336;SDS011;45115;52.002;4.686;2023-05-14T07:22:20;30.30;;;17.45;;
59336;SDS011;45115;52.002;4.686;2023-05-14T07:24:46;34.08;;;17.17;;
59336;SDS011;45115;52.002;4.686;2023-05-14T07:27:13;32.05;;;18.75;;
59336;SDS011;45115;52.002;4.686;2023-05-14T07:29:41;31.17;;;17.63;;
59336;SDS011;45115;52.002;4.686;2023-05-14T07:32:08;29.02;;;17.55;;
59336;SDS011;45115;52.002;4.686;2023-05-14T07:34:35;33.83;;;18.33;;
59336;SDS011;45115;52.002;4.686;2023-05-14T07:37:06;30.63;;;18.40;;
59336;SDS011;45115;52.002;4.686;2023-05-14T07:39:33;30.35;;;17.25;;
59336;SDS011;45115;52.002;4.686;2023-05-14T07:42:00;31.73;;;17.27;;
59336;SDS011;45115;52.002;4.686;2023-05-14T07:44:27;28.73;;;16.52;;
59336;SDS011;45115;52.002;4.686;2023-05-14T07:46:53;31.13;;;16.75;;
59336;SDS011;45115;52.002;4.686;2023-05-14T07:49:20;29.90;;;17.02;;
59336;SDS011;45115;52.002;4.686;2023-05-14T07:51:46;27.48;;;16.50;;
59336;SDS011;45115;52.002;4.686;2023-05-14T07:54:15;28.85;;;16.45;;
59336;SDS011;45115;52.002;4.686;2023-05-14T07:56:42;29.70;;;16.17;;
59336;SDS011;45115;52.002;4.686;2023-05-14T07:59:08;30.92;;;15.73;;
59336;SDS011;45115;52.002;4.686;2023-05-14T08:01:40;32.97;;;17.27;;
59336;SDS011;45115;52.002;4.686;2023-05-14T08:04:18;28.73;;;16.42;;
59336;SDS011;45115;52.002;4.686;2023-05-14T08:06:47;29.60;;;16.50;;
59336;SDS011;45115;52.002;4.686;2023-05-14T08:09:15;27.10;;;15.77;;
59336;SDS011;45115;52.002;4.686;2023-05-14T08:11:42;26.83;;;15.02;;
59336;SDS011;45115;52.002;4.686;2023-05-14T08:14:08;26.17;;;14.25;;
59336;SDS011;45115;52.002;4.686;2023-05-14T08:16:35;23.83;;;13.30;;
59336;SDS011;45115;52.002;4.686;2023-05-14T08:19:02;20.52;;;12.75;;
59336;SDS011;45115;52.002;4.686;2023-05-14T08:21:29;20.75;;;12.60;;
59336;SDS011;45115;52.002;4.686;2023-05-14T08:23:56;24.50;;;14.05;;
59336;SDS011;45115;52.002;4.686;2023-05-14T08:26:24;23.75;;;15.88;;
59336;SDS011;45115;52.002;4.686;2023-05-14T08:28:51;22.38;;;13.73;;
59336;SDS011;45115;52.002;4.686;2023-05-14T08:31:18;23.92;;;13.35;;
59336;SDS011;45115;52.002;4.686;2023-05-14T08:33:45;20.10;;;12.07;;
59336;SDS011;45115;52.002;4.686;2023-05-14T08:36:12;20.20;;;11.20;;
59336;SDS011;45115;52.002;4.686;2023-05-14T08:38:39;19.00;;;11.65;;
59336;SDS011;45115;52.002;4.686;2023-05-14T08:41:06;22.05;;;12.13;;
59336;SDS011;45115;52.002;4.686;2023-05-14T08:43:43;21.88;;;12.02;;
59336;SDS011;45115;52.002;4.686;2023-05-14T08:46:16;16.52;;;10.80;;
59336;SDS011;45115;52.002;4.686;2023-05-14T08:48:46;19.83;;;11.60;;
59336;SDS011;45115;52.002;4.686;2023-05-14T08:51:18;19.23;;;11.35;;
59336;SDS011;45115;52.002;4.686;2023-05-14T08:53:45;19.63;;;11.65;;
59336;SDS011;45115;52.002;4.686;2023-05-14T08:56:13;21.98;;;12.80;;
59336;SDS011;45115;52.002;4.686;2023-05-14T08:58:44;20.25;;;12.75;;
59336;SDS011;45115;52.002;4.686;2023-05-14T09:01:10;19.48;;;11.48;;
59336;SDS011;45115;52.002;4.686;2023-05-14T09:03:37;19.60;;;11.77;;
59336;SDS011;45115;52.002;4.686;2023-05-14T09:06:05;19.88;;;12.30;;
59336;SDS011;45115;52.002;4.686;2023-05-14T09:08:32;20.25;;;12.25;;
59336;SDS011;45115;52.002;4.686;2023-05-14T09:11:00;20.05;;;12.65;;
59336;SDS011;45115;52.002;4.686;2023-05-14T09:13:27;17.38;;;10.95;;
59336;SDS011;45115;52.002;4.686;2023-05-14T09:15:55;18.63;;;11.70;;
59336;SDS011;45115;52.002;4.686;2023-05-14T09:18:22;20.55;;;12.02;;
59336;SDS011;45115;52.002;4.686;2023-05-14T09:20:50;18.80;;;11.35;;
59336;SDS011;45115;52.002;4.686;2023-05-14T09:23:17;19.52;;;11.80;;
59336;SDS011;45115;52.002;4.686;2023-05-14T09:25:43;17.92;;;11.13;;
59336;SDS011;45115;52.002;4.686;2023-05-14T09:28:15;18.80;;;11.63;;
59336;SDS011;45115;52.002;4.686;2023-05-14T09:30:45;18.77;;;11.00;;
59336;SDS011;45115;52.002;4.686;2023-05-14T09:33:14;18.38;;;11.85;;
59336;SDS011;45115;52.002;4.686;2023-05-14T09:35:53;19.92;;;11.75;;
59336;SDS011;45115;52.002;4.686;2023-05-14T09:38:23;18.88;;;12.30;;
59336;SDS011;45115;52.002;4.686;2023-05-14T09:40:53;18.88;;;12.05;;
59336;SDS011;45115;52.002;4.686;2023-05-14T09:43:20;19.00;;;13.07;;
59336;SDS011;45115;52.002;4.686;2023-05-14T09:45:47;21.75;;;12.70;;
59336;SDS011;45115;52.002;4.686;2023-05-14T09:48:15;22.15;;;13.23;;
59336;SDS011;45115;52.002;4.686;2023-05-14T09:50:41;21.85;;;12.23;;
59336;SDS011;45115;52.002;4.686;2023-05-14T09:53:09;20.20;;;11.93;;
59336;SDS011;45115;52.002;4.686;2023-05-14T09:55:35;21.75;;;11.50;;
59336;SDS011;45115;52.002;4.686;2023-05-14T09:58:04;20.67;;;12.07;;
59336;SDS011;45115;52.002;4.686;2023-05-14T10:00:31;20.58;;;12.05;;
59336;SDS011;45115;52.002;4.686;2023-05-14T10:02:58;16.98;;;10.40;;
59336;SDS011;45115;52.002;4.686;2023-05-14T10:05:31;22.00;;;10.90;;
59336;SDS011;45115;52.002;4.686;2023-05-14T10:08:00;21.13;;;11.48;;
59336;SDS011;45115;52.002;4.686;2023-05-14T10:10:31;18.98;;;11.48;;
59336;SDS011;45115;52.002;4.686;2023-05-14T10:13:00;18.45;;;11.00;;
59336;SDS011;45115;52.002;4.686;2023-05-14T10:15:32;17.67;;;10.68;;
59336;SDS011;45115;52.002;4.686;2023-05-14T10:18:06;16.58;;;10.05;;
59336;SDS011;45115;52.002;4.686;2023-05-14T10:20:37;16.45;;;10.63;;
59336;SDS011;45115;52.002;4.686;2023-05-14T10:23:05;17.63;;;10.30;;
59336;SDS011;45115;52.002;4.686;2023-05-14T10:25:32;20.05;;;10.32;;
59336;SDS011;45115;52.002;4.686;2023-05-14T10:28:00;17.48;;;10.80;;
59336;SDS011;45115;52.002;4.686;2023-05-14T10:30:27;15.98;;;9.63;;
59336;SDS011;45115;52.002;4.686;2023-05-14T10:33:07;17.45;;;10.10;;
59336;SDS011;45115;52.002;4.686;2023-05-14T10:38:20;19.15;;;10.60;;
59336;SDS011;45115;52.002;4.686;2023-05-14T10:40:48;18.05;;;9.73;;
59336;SDS011;45115;52.002;4.686;2023-05-14T10:43:15;18.08;;;10.35;;
59336;SDS011;45115;52.002;4.686;2023-05-14T10:45:43;16.17;;;10.27;;
59336;SDS011;45115;52.002;4.686;2023-05-14T10:48:10;18.50;;;10.25;;
59336;SDS011;45115;52.002;4.686;2023-05-14T10:50:37;17.55;;;9.93;;
59336;SDS011;45115;52.002;4.686;2023-05-14T10:53:05;18.88;;;10.07;;
59336;SDS011;45115;52.002;4.686;2023-05-14T10:55:36;16.92;;;10.13;;
59336;SDS011;45115;52.002;4.686;2023-05-14T10:58:03;16.15;;;9.43;;
59336;SDS011;45115;52.002;4.686;2023-05-14T11:00:32;17.63;;;9.98;;
59336;SDS011;45115;52.002;4.686;2023-05-14T11:02:59;16.73;;;9.23;;
59336;SDS011;45115;52.002;4.686;2023-05-14T11:05:29;14.70;;;8.90;;
59336;SDS011;45115;52.002;4.686;2023-05-14T11:07:57;13.98;;;8.20;;
59336;SDS011;45115;52.002;4.686;2023-05-14T11:10:25;15.02;;;8.93;;
59336;SDS011;45115;52.002;4.686;2023-05-14T11:12:54;15.53;;;9.13;;
59336;SDS011;45115;52.002;4.686;2023-05-14T11:15:22;16.35;;;9.30;;
59336;SDS011;45115;52.002;4.686;2023-05-14T11:17:50;14.18;;;8.68;;
59336;SDS011;45115;52.002;4.686;2023-05-14T11:20:18;17.77;;;9.63;;
59336;SDS011;45115;52.002;4.686;2023-05-14T11:22:46;15.63;;;9.40;;
59336;SDS011;45115;52.002;4.686;2023-05-14T11:25:15;16.60;;;9.90;;
59336;SDS011;45115;52.002;4.686;2023-05-14T11:27:44;17.73;;;9.55;;
59336;SDS011;45115;52.002;4.686;2023-05-14T11:30:12;15.82;;;9.63;;
59336;SDS011;45115;52.002;4.686;2023-05-14T11:32:40;16.38;;;9.75;;
59336;SDS011;45115;52.002;4.686;2023-05-14T11:35:08;15.35;;;9.32;;
59336;SDS011;45115;52.002;4.686;2023-05-14T11:37:35;16.25;;;9.70;;
59336;SDS011;45115;52.002;4.686;2023-05-14T11:40:05;17.75;;;9.52;;
59336;SDS011;45115;52.002;4.686;2023-05-14T11:42:33;17.25;;;9.00;;
59336;SDS011;45115;52.002;4.686;2023-05-14T11:45:02;21.65;;;10.65;;
59336;SDS011;45115;52.002;4.686;2023-05-14T11:47:29;13.82;;;8.75;;
59336;SDS011;45115;52.002;4.686;2023-05-14T11:49:56;19.60;;;9.55;;
59336;SDS011;45115;52.002;4.686;2023-05-14T11:52:24;17.50;;;9.63;;
59336;SDS011;45115;52.002;4.686;2023-05-14T11:54:50;17.45;;;9.70;;
59336;SDS011;45115;52.002;4.686;2023-05-14T11:57:17;15.60;;;8.95;;
59336;SDS011;45115;52.002;4.686;2023-05-14T11:59:46;18.42;;;10.30;;
59336;SDS011;45115;52.002;4.686;2023-05-14T12:02:16;17.73;;;9.55;;
59336;SDS011;45115;52.002;4.686;2023-05-14T12:04:45;15.43;;;9.18;;
59336;SDS011;45115;52.002;4.686;2023-05-14T12:07:15;16.55;;;9.73;;
59336;SDS011;45115;52.002;4.686;2023-05-14T12:09:43;16.13;;;8.90;;
59336;SDS011;45115;52.002;4.686;2023-05-14T12:12:13;18.42;;;10.52;;
59336;SDS011;45115;52.002;4.686;2023-05-14T12:14:42;17.98;;;9.68;;
59336;SDS011;45115;52.002;4.686;2023-05-14T12:17:14;15.43;;;9.50;;
59336;SDS011;45115;52.002;4.686;2023-05-14T12:19:42;16.55;;;9.27;;
59336;SDS011;45115;52.002;4.686;2023-05-14T12:22:10;17.13;;;8.95;;
59336;SDS011;45115;52.002;4.686;2023-05-14T12:24:38;14.80;;;9.45;;
59336;SDS011;45115;52.002;4.686;2023-05-14T12:27:06;13.55;;;8.30;;
59336;SDS011;45115;52.002;4.686;2023-05-14T12:29:34;15.48;;;8.77;;
59336;SDS011;45115;52.002;4.686;2023-05-14T12:32:06;18.10;;;9.48;;
59336;SDS011;45115;52.002;4.686;2023-05-14T12:34:36;16.67;;;8.98;;
59336;SDS011;45115;52.002;4.686;2023-05-14T12:37:04;14.80;;;8.93;;
59336;SDS011;45115;52.002;4.686;2023-05-14T12:39:31;15.55;;;9.18;;
59336;SDS011;45115;52.002;4.686;2023-05-14T12:41:59;17.13;;;9.70;;
59336;SDS011;45115;52.002;4.686;2023-05-14T12:44:26;15.57;;;8.70;;
59336;SDS011;45115;52.002;4.686;2023-05-14T12:46:53;16.48;;;8.77;;
59336;SDS011;45115;52.002;4.686;2023-05-14T12:49:20;15.18;;;9.35;;
59336;SDS011;45115;52.002;4.686;2023-05-14T12:51:48;16.52;;;9.18;;
59336;SDS011;45115;52.002;4.686;2023-05-14T12:54:17;15.48;;;8.68;;
59336;SDS011;45115;52.002;4.686;2023-05-14T12:56:44;15.13;;;8.77;;
59336;SDS011;45115;52.002;4.686;2023-05-14T12:59:11;16.25;;;9.15;;
59336;SDS011;45115;52.002;4.686;2023-05-14T13:01:37;15.20;;;9.18;;
59336;SDS011;45115;52.002;4.686;2023-05-14T13:04:06;18.58;;;9.85;;
59336;SDS011;45115;52.002;4.686;2023-05-14T13:06:33;15.25;;;8.90;;
59336;SDS011;45115;52.002;4.686;2023-05-14T13:09:01;19.50;;;9.65;;
59336;SDS011;45115;52.002;4.686;2023-05-14T13:11:28;17.02;;;8.75;;
59336;SDS011;45115;52.002;4.686;2023-05-14T13:13:56;16.48;;;9.18;;
59336;SDS011;45115;52.002;4.686;2023-05-14T13:16:23;15.77;;;8.70;;
59336;SDS011;45115;52.002;4.686;2023-05-14T13:18:50;15.30;;;8.95;;
59336;SDS011;45115;52.002;4.686;2023-05-14T13:21:17;17.35;;;8.75;;
59336;SDS011;45115;52.002;4.686;2023-05-14T13:23:43;20.00;;;9.23;;
59336;SDS011;45115;52.002;4.686;2023-05-14T13:26:11;18.67;;;8.75;;
59336;SDS011;45115;52.002;4.686;2023-05-14T13:28:38;16.63;;;8.80;;
59336;SDS011;45115;52.002;4.686;2023-05-14T13:31:05;16.15;;;9.25;;
59336;SDS011;45115;52.002;4.686;2023-05-14T13:33:34;14.23;;;8.27;;
59336;SDS011;45115;52.002;4.686;2023-05-14T13:36:02;17.20;;;8.88;;
59336;SDS011;45115;52.002;4.686;2023-05-14T13:38:29;16.38;;;8.88;;
59336;SDS011;45115;52.002;4.686;2023-05-14T13:40:56;19.65;;;8.60;;
59336;SDS011;45115;52.002;4.686;2023-05-14T13:43:28;15.02;;;8.32;;
59336;SDS011;45115;52.002;4.686;2023-05-14T13:45:55;15.43;;;8.85;;
59336;SDS011;45115;52.002;4.686;2023-05-14T13:48:22;16.65;;;8.52;;
59336;SDS011;45115;52.002;4.686;2023-05-14T13:50:50;16.75;;;8.13;;
59336;SDS011;45115;52.002;4.686;2023-05-14T13:53:16;16.25;;;8.30;;
59336;SDS011;45115;52.002;4.686;2023-05-14T13:55:43;14.20;;;8.40;;
59336;SDS011;45115;52.002;4.686;2023-05-14T13:58:10;14.50;;;8.70;;
59336;SDS011;45115;52.002;4.686;2023-05-14T14:00:38;16.30;;;8.35;;
59336;SDS011;45115;52.002;4.686;2023-05-14T14:03:05;17.50;;;8.90;;
59336;SDS011;45115;52.002;4.686;2023-05-14T14:05:33;16.80;;;7.80;;
59336;SDS011;45115;52.002;4.686;2023-05-14T14:08:00;16.25;;;8.23;;
59336;SDS011;45115;52.002;4.686;2023-05-14T14:10:26;16.65;;;8.68;;
59336;SDS011;45115;52.002;4.686;2023-05-14T14:12:53;19.60;;;8.50;;
59336;SDS011;45115;52.002;4.686;2023-05-14T14:15:20;16.55;;;7.95;;
59336;SDS011;45115;52.002;4.686;2023-05-14T14:17:48;15.82;;;7.70;;
59336;SDS011;45115;52.002;4.686;2023-05-14T14:20:15;16.80;;;8.32;;
59336;SDS011;45115;52.002;4.686;2023-05-14T14:22:42;17.48;;;8.43;;
59336;SDS011;45115;52.002;4.686;2023-05-14T14:25:09;15.65;;;7.93;;
59336;SDS011;45115;52.002;4.686;2023-05-14T14:27:36;15.70;;;8.20;;
59336;SDS011;45115;52.002;4.686;2023-05-14T14:30:04;16.67;;;8.30;;
59336;SDS011;45115;52.002;4.686;2023-05-14T14:32:32;15.63;;;8.93;;